| time (UTC) | temp F | wind direction | speed knots | gust knots | rain 1hr in | rain 24hr in | rain mn in | humidity % | barometer mb |
| 20260504050505 | 39 | 133 | 0.0 | 0.0 | 0.00 | 0.00 | 0.00 | 76 | 1015.8 |
| 20260504050018 | 40 | 133 | 0.0 | 0.0 | 0.00 | 0.00 | 0.00 | 75 | 1015.8 |
| 20260504045511 | 40 | 182 | 0.0 | 0.0 | 0.00 | 0.00 | 0.00 | 74 | 1015.8 |
| 20260504045003 | 40 | 107 | 0.0 | 0.0 | 0.00 | 0.00 | 0.00 | 75 | 1015.7 |
| 20260504044507 | 40 | 107 | 0.0 | 0.0 | 0.00 | 0.00 | 0.00 | 74 | 1015.7 |
| 20260504044003 | 40 | 107 | 0.0 | 0.0 | 0.00 | 0.00 | 0.00 | 74 | 1015.6 |
| 20260504043505 | 40 | 107 | 0.0 | 0.0 | 0.00 | 0.00 | 0.00 | 73 | 1015.6 |
| 20260504043008 | 40 | 107 | 0.0 | 0.0 | 0.00 | 0.00 | 0.00 | 74 | 1015.5 |
| 20260504042504 | 40 | 107 | 0.0 | 0.0 | 0.00 | 0.00 | 0.00 | 71 | 1015.5 |
| 20260504042008 | 40 | 107 | 0.0 | 0.0 | 0.00 | 0.00 | 0.00 | 70 | 1015.5 |
| 20260504041509 | 41 | 107 | 0.0 | 0.0 | 0.00 | 0.00 | 0.00 | 70 | 1015.5 |
| 20260504041003 | 41 | 107 | 0.0 | 0.0 | 0.00 | 0.00 | 0.00 | 70 | 1015.5 |
| 20260504040507 | 41 | 107 | 0.0 | 1.7 | 0.00 | 0.00 | 0.00 | 69 | 1015.4 |
| 20260504040024 | 41 | 107 | 0.0 | 1.7 | 0.00 | 0.00 | 0.00 | 70 | 1015.4 |
| 20260504035505 | 41 | 107 | 0.0 | 1.7 | 0.00 | 0.00 | 0.00 | 72 | 1015.3 |
| 20260504035003 | 41 | 121 | 0.0 | 0.9 | 0.00 | 0.00 | 0.00 | 71 | 1015.4 |
| 20260504034508 | 42 | 196 | 0.0 | 0.0 | 0.00 | 0.00 | 0.00 | 66 | 1015.5 |
| 20260504034007 | 42 | 196 | 0.0 | 0.0 | 0.00 | 0.00 | 0.00 | 66 | 1015.6 |
| 20260504033504 | 42 | 196 | 0.0 | 0.0 | 0.00 | 0.00 | 0.00 | 66 | 1015.7 |
| 20260504033016 | 42 | 196 | 0.0 | 0.0 | 0.00 | 0.00 | 0.00 | 66 | 1015.6 |
| 20260504032508 | 43 | 196 | 0.0 | 0.0 | 0.00 | 0.00 | 0.00 | 64 | 1015.6 |
| 20260504032006 | 43 | 196 | 0.0 | 0.0 | 0.00 | 0.00 | 0.00 | 63 | 1015.5 |
| 20260504031518 | 43 | 196 | 0.0 | 0.0 | 0.00 | 0.00 | 0.00 | 62 | 1015.5 |
| 20260504031009 | 43 | 196 | 0.0 | 0.0 | 0.00 | 0.00 | 0.00 | 62 | 1015.4 |
| 20260504030509 | 44 | 196 | 0.0 | 0.0 | 0.00 | 0.00 | 0.00 | 62 | 1015.4 |
| 20260504030008 | 44 | 196 | 0.0 | 0.0 | 0.00 | 0.00 | 0.00 | 62 | 1015.4 |
| 20260504025505 | 44 | 196 | 0.0 | 0.0 | 0.00 | 0.00 | 0.00 | 61 | 1015.4 |
| 20260504025004 | 44 | 196 | 0.0 | 0.0 | 0.00 | 0.00 | 0.00 | 61 | 1015.4 |
| 20260504024503 | 45 | 196 | 0.0 | 0.0 | 0.00 | 0.00 | 0.00 | 62 | 1015.4 |
| 20260504024003 | 45 | 196 | 0.0 | 0.0 | 0.00 | 0.00 | 0.00 | 63 | 1015.3 |
| 20260504023506 | 45 | 196 | 0.0 | 0.9 | 0.00 | 0.00 | 0.00 | 62 | 1015.3 |
| 20260504023018 | 46 | 196 | 0.0 | 0.9 | 0.00 | 0.00 | 0.00 | 58 | 1015.4 |
| 20260504022506 | 46 | 196 | 0.0 | 0.0 | 0.00 | 0.00 | 0.00 | 57 | 1015.4 |
| 20260504022007 | 46 | 196 | 0.0 | 0.0 | 0.00 | 0.00 | 0.00 | 58 | 1015.2 |
| 20260504021522 | 47 | 196 | 0.0 | 1.7 | 0.00 | 0.00 | 0.00 | 58 | 1015.3 |
| 20260504021007 | 47 | 196 | 0.0 | 1.7 | 0.00 | 0.00 | 0.00 | 57 | 1015.2 |
| 20260504020503 | 47 | 196 | 0.0 | 0.9 | 0.00 | 0.00 | 0.00 | 54 | 1015.2 |
| 20260504020027 | 47 | 196 | 0.0 | 0.9 | 0.00 | 0.00 | 0.00 | 54 | 1015.2 |
| 20260504015503 | 48 | 196 | 0.0 | 0.9 | 0.00 | 0.00 | 0.00 | 53 | 1015.2 |
| 20260504015005 | 48 | 196 | 0.0 | 0.0 | 0.00 | 0.00 | 0.00 | 54 | 1015.2 |
| 20260504014512 | 49 | 196 | 0.0 | 0.0 | 0.00 | 0.00 | 0.00 | 54 | 1015.1 |
| 20260504014021 | 49 | 196 | 0.0 | 1.7 | 0.00 | 0.00 | 0.00 | 50 | 1015.2 |
| 20260504013506 | 49 | 196 | 0.0 | 1.7 | 0.00 | 0.00 | 0.00 | 50 | 1015.2 |
| 20260504013017 | 50 | 196 | 0.0 | 1.7 | 0.00 | 0.00 | 0.00 | 50 | 1015.1 |
| 20260504012507 | 50 | 196 | 0.0 | 0.9 | 0.00 | 0.00 | 0.00 | 49 | 1015.1 |
| 20260504012007 | 51 | 196 | 0.0 | 0.0 | 0.00 | 0.00 | 0.00 | 48 | 1014.9 |
| 20260504011508 | 51 | 196 | 0.0 | 0.9 | 0.00 | 0.00 | 0.00 | 46 | 1014.9 |
| 20260504011006 | 51 | 196 | 0.0 | 1.7 | 0.00 | 0.00 | 0.00 | 46 | 1014.8 |
| 20260504010507 | 52 | 196 | 0.0 | 1.7 | 0.00 | 0.00 | 0.00 | 47 | 1014.8 |
| 20260504010024 | 52 | 196 | 0.0 | 1.7 | 0.00 | 0.00 | 0.00 | 46 | 1014.9 |
| 20260504005504 | 52 | 202 | 0.9 | 1.7 | 0.00 | 0.00 | 0.00 | 42 | 1014.8 |
| 20260504005010 | 53 | 273 | 0.0 | 1.7 | 0.00 | 0.00 | 0.00 | 41 | 1014.8 |
| 20260504004516 | 53 | 273 | 0.0 | 0.0 | 0.00 | 0.00 | 0.00 | 42 | 1014.7 |
| 20260504004008 | 53 | 273 | 0.0 | 0.0 | 0.00 | 0.00 | 0.00 | 44 | 1014.6 |
| 20260504003508 | 54 | 273 | 0.0 | 1.7 | 0.00 | 0.00 | 0.00 | 44 | 1014.6 |
| 20260504003030 | 54 | 273 | 0.0 | 1.7 | 0.00 | 0.00 | 0.00 | 39 | 1014.6 |
| 20260504002509 | 54 | 273 | 0.0 | 1.7 | 0.00 | 0.00 | 0.00 | 39 | 1014.5 |
| 20260504002004 | 54 | 273 | 0.0 | 1.7 | 0.00 | 0.00 | 0.00 | 38 | 1014.5 |
| 20260504001521 | 54 | 273 | 0.0 | 1.7 | 0.00 | 0.00 | 0.00 | 38 | 1014.4 |
| 20260504001008 | 55 | 273 | 0.0 | 2.6 | 0.00 | 0.00 | 0.00 | 38 | 1014.4 |
| 20260504000506 | 55 | 273 | 0.0 | 2.6 | 0.00 | 0.00 | 0.00 | 38 | 1014.4 |
| 20260504000031 | 55 | 275 | 0.9 | 3.5 | 0.00 | 0.00 | 0.00 | 37 | 1014.4 |
| 20260503235509 | 55 | 269 | 0.9 | 3.5 | 0.00 | 0.00 | 0.00 | 37 | 1014.3 |
| 20260503235008 | 56 | 225 | 0.9 | 3.5 | 0.00 | 0.00 | 0.00 | 37 | 1014.3 |
| 20260503234511 | 56 | 265 | 0.0 | 3.5 | 0.00 | 0.00 | 0.00 | 37 | 1014.3 |
| 20260503234007 | 56 | 298 | 0.0 | 7.0 | 0.00 | 0.00 | 0.00 | 37 | 1014.3 |
| 20260503233510 | 56 | 302 | 1.7 | 8.7 | 0.00 | 0.00 | 0.00 | 36 | 1014.2 |
| 20260503233022 | 56 | 338 | 2.6 | 8.7 | 0.00 | 0.00 | 0.00 | 36 | 1014.1 |
| 20260503232507 | 57 | 352 | 1.7 | 7.8 | 0.00 | 0.00 | 0.00 | 36 | 1014.1 |
| 20260503232007 | 57 | 308 | 3.5 | 7.8 | 0.00 | 0.00 | 0.00 | 35 | 1014.0 |
| 20260503231524 | 57 | 258 | 2.6 | 7.0 | 0.00 | 0.00 | 0.00 | 36 | 1013.9 |
| 20260503231007 | 57 | 304 | 3.5 | 7.0 | 0.00 | 0.00 | 0.00 | 36 | 1013.9 |
| 20260503230507 | 57 | 322 | 2.6 | 7.8 | 0.00 | 0.00 | 0.00 | 35 | 1013.9 |
| 20260503230015 | 58 | 234 | 3.5 | 7.0 | 0.00 | 0.00 | 0.00 | 36 | 1014.0 |
| 20260503225509 | 58 | 315 | 1.7 | 7.8 | 0.00 | 0.00 | 0.00 | 36 | 1014.0 |
| 20260503225009 | 58 | 281 | 3.5 | 7.8 | 0.00 | 0.00 | 0.00 | 34 | 1014.0 |
| 20260503224521 | 58 | 342 | 1.7 | 8.7 | 0.00 | 0.00 | 0.00 | 34 | 1014.0 |
| 20260503224009 | 58 | 237 | 3.5 | 8.7 | 0.00 | 0.00 | 0.00 | 34 | 1014.0 |
| 20260503223507 | 59 | 259 | 3.5 | 10.4 | 0.00 | 0.00 | 0.00 | 36 | 1014.1 |
| 20260503223018 | 59 | 258 | 4.3 | 10.4 | 0.00 | 0.00 | 0.00 | 35 | 1014.0 |
| 20260503222509 | 59 | 297 | 3.5 | 11.3 | 0.00 | 0.00 | 0.00 | 35 | 1014.0 |
| 20260503222010 | 59 | 249 | 3.5 | 11.3 | 0.00 | 0.00 | 0.00 | 35 | 1014.0 |
| 20260503221514 | 59 | 316 | 6.1 | 10.4 | 0.00 | 0.00 | 0.00 | 35 | 1014.0 |
| 20260503221012 | 59 | 317 | 4.3 | 10.4 | 0.00 | 0.00 | 0.00 | 35 | 1013.9 |
| 20260503220508 | 59 | 302 | 5.2 | 10.4 | 0.00 | 0.00 | 0.00 | 34 | 1014.0 |
| 20260503220018 | 59 | 313 | 6.1 | 11.3 | 0.00 | 0.00 | 0.00 | 35 | 1014.1 |
| 20260503215505 | 59 | 342 | 7.0 | 18.2 | 0.00 | 0.00 | 0.00 | 35 | 1014.2 |
| 20260503215007 | 59 | 316 | 7.0 | 18.2 | 0.00 | 0.00 | 0.00 | 33 | 1014.2 |
| 20260503214524 | 59 | 18 | 3.5 | 9.6 | 0.00 | 0.00 | 0.00 | 35 | 1014.0 |
| 20260503214012 | 59 | 360 | 3.5 | 8.7 | 0.00 | 0.00 | 0.00 | 34 | 1014.0 |
| 20260503213509 | 59 | 325 | 3.5 | 9.6 | 0.00 | 0.00 | 0.00 | 35 | 1014.0 |
| 20260503213023 | 59 | 293 | 4.3 | 12.2 | 0.00 | 0.00 | 0.00 | 35 | 1014.0 |
| 20260503212508 | 59 | 260 | 4.3 | 12.2 | 0.00 | 0.00 | 0.00 | 35 | 1014.0 |
| 20260503212007 | 59 | 290 | 4.3 | 9.6 | 0.00 | 0.00 | 0.00 | 36 | 1014.0 |
| 20260503211522 | 58 | 251 | 5.2 | 14.8 | 0.00 | 0.00 | 0.00 | 34 | 1013.9 |
| 20260503211011 | 59 | 277 | 8.7 | 14.8 | 0.00 | 0.00 | 0.00 | 31 | 1014.0 |
| 20260503210511 | 59 | 294 | 8.7 | 14.8 | 0.00 | 0.00 | 0.00 | 33 | 1014.0 |
| 20260503210018 | 59 | 265 | 5.2 | 13.9 | 0.00 | 0.00 | 0.00 | 35 | 1013.9 |
| 20260503205507 | 59 | 317 | 5.2 | 13.9 | 0.00 | 0.00 | 0.00 | 33 | 1013.9 |
| 20260503205007 | 58 | 337 | 4.3 | 15.6 | 0.00 | 0.00 | 0.00 | 33 | 1013.9 |
| 20260503204503 | 58 | 301 | 7.0 | 15.6 | 0.00 | 0.00 | 0.00 | 34 | 1013.9 |
| 20260503204005 | 58 | 307 | 6.1 | 15.6 | 0.00 | 0.00 | 0.00 | 33 | 1014.0 |
| 20260503203504 | 59 | 319 | 7.8 | 15.6 | 0.00 | 0.00 | 0.00 | 35 | 1013.9 |
| 20260503203018 | 59 | 296 | 7.0 | 12.2 | 0.00 | 0.00 | 0.00 | 33 | 1013.9 |
| 20260503202507 | 59 | 266 | 3.5 | 13.9 | 0.00 | 0.00 | 0.00 | 35 | 1014.0 |
| 20260503202004 | 58 | 328 | 7.0 | 13.9 | 0.00 | 0.00 | 0.00 | 34 | 1014.0 |
| 20260503201511 | 58 | 352 | 7.0 | 14.8 | 0.00 | 0.00 | 0.00 | 33 | 1014.1 |
| 20260503201007 | 58 | 291 | 5.2 | 14.8 | 0.00 | 0.00 | 0.00 | 35 | 1014.2 |
| 20260503200509 | 58 | 279 | 5.2 | 11.3 | 0.00 | 0.00 | 0.00 | 33 | 1014.3 |
| 20260503200005 | 58 | 324 | 6.1 | 16.5 | 0.00 | 0.00 | 0.00 | 33 | 1014.3 |
| 20260503195503 | 59 | 320 | 9.6 | 16.5 | 0.00 | 0.00 | 0.00 | 33 | 1014.4 |
| 20260503195005 | 59 | 309 | 7.0 | 13.0 | 0.00 | 0.00 | 0.00 | 35 | 1014.5 |
| 20260503194503 | 58 | 215 | 2.6 | 13.9 | 0.00 | 0.00 | 0.00 | 42 | 1014.5 |
| 20260503194005 | 58 | 322 | 2.6 | 14.8 | 0.00 | 0.00 | 0.00 | 38 | 1014.7 |
| 20260503193506 | 57 | 284 | 6.1 | 14.8 | 0.00 | 0.00 | 0.00 | 36 | 1014.7 |
| 20260503193012 | 57 | 286 | 7.0 | 13.9 | 0.00 | 0.00 | 0.00 | 33 | 1014.8 |
| 20260503192503 | 57 | 293 | 1.7 | 13.0 | 0.00 | 0.00 | 0.00 | 36 | 1014.8 |
| 20260503192006 | 56 | 319 | 7.0 | 13.0 | 0.00 | 0.00 | 0.00 | 39 | 1014.9 |
| 20260503191519 | 56 | 287 | 4.3 | 13.0 | 0.00 | 0.00 | 0.00 | 40 | 1014.9 |
| 20260503191004 | 56 | 217 | 5.2 | 13.0 | 0.00 | 0.00 | 0.00 | 39 | 1015.0 |
| 20260503190507 | 57 | 278 | 5.2 | 17.4 | 0.00 | 0.00 | 0.00 | 36 | 1015.0 |
| 20260503190018 | 56 | 302 | 6.1 | 17.4 | 0.00 | 0.00 | 0.00 | 39 | 1015.1 |
| 20260503185502 | 56 | 303 | 6.1 | 12.2 | 0.00 | 0.00 | 0.00 | 37 | 1015.1 |
| 20260503185003 | 56 | 234 | 4.3 | 17.4 | 0.00 | 0.00 | 0.00 | 38 | 1015.2 |
| 20260503184509 | 56 | 231 | 7.0 | 17.4 | 0.00 | 0.00 | 0.00 | 38 | 1015.1 |
| 20260503184007 | 55 | 293 | 8.7 | 16.5 | 0.00 | 0.00 | 0.00 | 47 | 1015.2 |
| 20260503183504 | 54 | 288 | 3.5 | 12.2 | 0.00 | 0.00 | 0.00 | 46 | 1015.2 |
| 20260503183009 | 54 | 302 | 6.1 | 12.2 | 0.00 | 0.00 | 0.00 | 39 | 1015.3 |
| 20260503182508 | 54 | 307 | 4.3 | 20.9 | 0.00 | 0.00 | 0.00 | 38 | 1015.3 |
| 20260503182006 | 54 | 321 | 8.7 | 20.9 | 0.00 | 0.00 | 0.00 | 38 | 1015.4 |
| 20260503181507 | 54 | 304 | 10.4 | 20.9 | 0.00 | 0.00 | 0.00 | 40 | 1015.4 |
| 20260503181007 | 54 | 217 | 5.2 | 12.2 | 0.00 | 0.00 | 0.00 | 41 | 1015.6 |
| 20260503180508 | 54 | 315 | 7.8 | 13.0 | 0.00 | 0.00 | 0.00 | 45 | 1015.4 |
| 20260503180029 | 53 | 12 | 7.0 | 13.0 | 0.00 | 0.00 | 0.00 | 44 | 1015.5 |
| 20260503175504 | 53 | 329 | 3.5 | 12.2 | 0.00 | 0.00 | 0.00 | 43 | 1015.6 |
| 20260503175003 | 53 | 212 | 3.5 | 16.5 | 0.00 | 0.00 | 0.00 | 40 | 1015.5 |
| 20260503174514 | 53 | 299 | 5.2 | 16.5 | 0.00 | 0.00 | 0.00 | 39 | 1015.6 |
| 20260503174007 | 53 | 278 | 6.1 | 13.0 | 0.00 | 0.00 | 0.00 | 41 | 1015.6 |
| 20260503173503 | 53 | 304 | 3.5 | 9.6 | 0.00 | 0.00 | 0.00 | 43 | 1015.6 |
| 20260503173032 | 53 | 215 | 3.5 | 13.9 | 0.00 | 0.00 | 0.00 | 43 | 1015.6 |
| 20260503172507 | 52 | 274 | 5.2 | 17.4 | 0.00 | 0.00 | 0.00 | 43 | 1015.7 |
| 20260503172004 | 53 | 336 | 9.6 | 17.4 | 0.00 | 0.00 | 0.00 | 40 | 1015.7 |
| 20260503171516 | 53 | 313 | 7.8 | 13.0 | 0.00 | 0.00 | 0.00 | 41 | 1015.8 |
| 20260503171006 | 53 | 318 | 4.3 | 15.6 | 0.00 | 0.00 | 0.00 | 42 | 1015.8 |
| 20260503170509 | 52 | 304 | 6.1 | 14.8 | 0.00 | 0.00 | 0.00 | 43 | 1016.0 |
| 20260503151011 | 48 | 9 | 7.8 | 13.0 | 0.00 | 0.00 | 0.00 | 44 | 1016.6 |
| 20260503150503 | 48 | 322 | 7.0 | 15.6 | 0.00 | 0.00 | 0.00 | 46 | 1016.6 |
| 20260503131004 | 43 | 347 | 6.1 | 13.9 | 0.00 | 0.00 | 0.00 | 58 | 1016.5 |
| 20260503130507 | 43 | 281 | 6.1 | 20.9 | 0.00 | 0.00 | 0.00 | 59 | 1016.5 |
| 20260503110507 | 36 | 318 | 3.5 | 7.8 | 0.00 | 0.00 | 0.00 | 75 | 1015.7 |
| 20260503090503 | 37 | 257 | 2.6 | 7.8 | 0.00 | 0.00 | 0.00 | 75 | 1013.9 |
| 20260503081519 | 38 | 283 | 3.5 | 8.7 | 0.00 | 0.00 | 0.00 | 73 | 1013.9 |
| 20260503081005 | 38 | 254 | 1.7 | 7.0 | 0.00 | 0.00 | 0.00 | 72 | 1014.0 |
| 20260503080507 | 38 | 302 | 1.7 | 8.7 | 0.00 | 0.00 | 0.00 | 72 | 1013.9 |
| 20260503072510 | 39 | 306 | 1.7 | 7.0 | 0.00 | 0.00 | 0.00 | 71 | 1013.5 |
| 20260503072004 | 39 | 313 | 1.7 | 7.0 | 0.00 | 0.00 | 0.00 | 71 | 1013.5 |
| 20260503071520 | 39 | 317 | 0.9 | 5.2 | 0.00 | 0.00 | 0.00 | 71 | 1013.5 |
| 20260503071007 | 39 | 313 | 0.9 | 5.2 | 0.00 | 0.00 | 0.00 | 71 | 1013.5 |